sensor_id;sensor_type;location;lat;lon;timestamp;temperature;humidity
58809;DHT22;44579;51.672;7.834;2023-10-09T00:01:06;13.80;83.50
58809;DHT22;44579;51.672;7.834;2023-10-09T00:03:44;13.80;83.60
58809;DHT22;44579;51.672;7.834;2023-10-09T00:06:12;13.80;83.50
58809;DHT22;44579;51.672;7.834;2023-10-09T00:08:40;13.70;83.40
58809;DHT22;44579;51.672;7.834;2023-10-09T00:11:11;13.70;83.40
58809;DHT22;44579;51.672;7.834;2023-10-09T00:13:45;13.70;83.40
58809;DHT22;44579;51.672;7.834;2023-10-09T00:16:20;13.70;83.40
58809;DHT22;44579;51.672;7.834;2023-10-09T00:19:05;13.70;83.40
58809;DHT22;44579;51.672;7.834;2023-10-09T00:21:47;13.70;83.50
58809;DHT22;44579;51.672;7.834;2023-10-09T00:24:15;13.70;83.60
58809;DHT22;44579;51.672;7.834;2023-10-09T00:26:52;13.70;83.60
58809;DHT22;44579;51.672;7.834;2023-10-09T00:29:22;13.70;83.70
58809;DHT22;44579;51.672;7.834;2023-10-09T00:31:53;13.80;83.70
58809;DHT22;44579;51.672;7.834;2023-10-09T00:34:40;13.70;83.70
58809;DHT22;44579;51.672;7.834;2023-10-09T00:37:10;13.80;83.80
58809;DHT22;44579;51.672;7.834;2023-10-09T00:39:43;13.80;83.80
58809;DHT22;44579;51.672;7.834;2023-10-09T00:42:11;13.80;83.70
58809;DHT22;44579;51.672;7.834;2023-10-09T00:44:41;13.80;83.70
58809;DHT22;44579;51.672;7.834;2023-10-09T00:47:12;13.80;83.70
58809;DHT22;44579;51.672;7.834;2023-10-09T00:49:58;13.80;83.70
58809;DHT22;44579;51.672;7.834;2023-10-09T00:52:37;13.80;83.70
58809;DHT22;44579;51.672;7.834;2023-10-09T00:55:12;13.80;83.70
58809;DHT22;44579;51.672;7.834;2023-10-09T00:57:50;13.80;84.60
58809;DHT22;44579;51.672;7.834;2023-10-09T01:00:18;13.90;83.90
58809;DHT22;44579;51.672;7.834;2023-10-09T01:03:17;13.90;83.90
58809;DHT22;44579;51.672;7.834;2023-10-09T01:05:47;13.90;84.00
58809;DHT22;44579;51.672;7.834;2023-10-09T01:08:32;13.90;84.00
58809;DHT22;44579;51.672;7.834;2023-10-09T01:11:15;13.90;84.20
58809;DHT22;44579;51.672;7.834;2023-10-09T01:13:46;14.00;84.40
58809;DHT22;44579;51.672;7.834;2023-10-09T01:16:22;14.10;84.40
58809;DHT22;44579;51.672;7.834;2023-10-09T01:18:54;14.20;84.40
58809;DHT22;44579;51.672;7.834;2023-10-09T01:21:24;14.30;84.40
58809;DHT22;44579;51.672;7.834;2023-10-09T01:23:54;14.40;84.40
58809;DHT22;44579;51.672;7.834;2023-10-09T01:26:35;14.50;84.70
58809;DHT22;44579;51.672;7.834;2023-10-09T01:29:16;14.50;84.80
58809;DHT22;44579;51.672;7.834;2023-10-09T01:31:54;14.50;85.90
58809;DHT22;44579;51.672;7.834;2023-10-09T01:34:23;14.60;85.30
58809;DHT22;44579;51.672;7.834;2023-10-09T01:36:52;14.60;85.20
58809;DHT22;44579;51.672;7.834;2023-10-09T01:39:23;14.60;85.30
58809;DHT22;44579;51.672;7.834;2023-10-09T01:41:51;14.60;85.30
58809;DHT22;44579;51.672;7.834;2023-10-09T01:44:33;14.60;85.30
58809;DHT22;44579;51.672;7.834;2023-10-09T01:47:10;14.60;85.50
58809;DHT22;44579;51.672;7.834;2023-10-09T01:49:45;14.70;85.50
58809;DHT22;44579;51.672;7.834;2023-10-09T01:52:16;14.70;85.60
58809;DHT22;44579;51.672;7.834;2023-10-09T01:54:45;14.70;85.60
58809;DHT22;44579;51.672;7.834;2023-10-09T01:57:18;14.70;85.70
58809;DHT22;44579;51.672;7.834;2023-10-09T01:59:52;14.70;85.80
58809;DHT22;44579;51.672;7.834;2023-10-09T02:02:24;14.70;85.90
58809;DHT22;44579;51.672;7.834;2023-10-09T02:04:59;14.70;85.90
58809;DHT22;44579;51.672;7.834;2023-10-09T02:07:37;14.70;86.00
58809;DHT22;44579;51.672;7.834;2023-10-09T02:10:21;14.70;86.10
58809;DHT22;44579;51.672;7.834;2023-10-09T02:12:55;14.80;86.20
58809;DHT22;44579;51.672;7.834;2023-10-09T02:15:30;14.80;86.30
58809;DHT22;44579;51.672;7.834;2023-10-09T02:18:27;14.80;86.40
58809;DHT22;44579;51.672;7.834;2023-10-09T02:23:28;14.80;86.50
58809;DHT22;44579;51.672;7.834;2023-10-09T02:26:10;14.80;86.60
58809;DHT22;44579;51.672;7.834;2023-10-09T02:28:44;14.90;86.80
58809;DHT22;44579;51.672;7.834;2023-10-09T02:31:19;14.90;86.80
58809;DHT22;44579;51.672;7.834;2023-10-09T02:33:49;14.90;86.90
58809;DHT22;44579;51.672;7.834;2023-10-09T02:36:22;14.90;87.00
58809;DHT22;44579;51.672;7.834;2023-10-09T02:38:49;15.00;87.10
58809;DHT22;44579;51.672;7.834;2023-10-09T02:41:15;15.00;87.20
58809;DHT22;44579;51.672;7.834;2023-10-09T02:43:42;15.00;87.30
58809;DHT22;44579;51.672;7.834;2023-10-09T02:46:14;15.00;87.20
58809;DHT22;44579;51.672;7.834;2023-10-09T02:48:48;15.00;87.30
58809;DHT22;44579;51.672;7.834;2023-10-09T02:51:20;15.10;87.50
58809;DHT22;44579;51.672;7.834;2023-10-09T02:53:57;15.10;87.50
58809;DHT22;44579;51.672;7.834;2023-10-09T02:56:27;15.10;87.60
58809;DHT22;44579;51.672;7.834;2023-10-09T02:59:10;15.20;87.70
58809;DHT22;44579;51.672;7.834;2023-10-09T03:01:38;15.20;87.80
58809;DHT22;44579;51.672;7.834;2023-10-09T03:04:09;15.20;87.80
58809;DHT22;44579;51.672;7.834;2023-10-09T03:06:42;15.30;87.90
58809;DHT22;44579;51.672;7.834;2023-10-09T03:09:18;15.30;88.00
58809;DHT22;44579;51.672;7.834;2023-10-09T03:11:46;15.30;88.10
58809;DHT22;44579;51.672;7.834;2023-10-09T03:14:14;15.30;88.10
58809;DHT22;44579;51.672;7.834;2023-10-09T03:16:43;15.30;88.10
58809;DHT22;44579;51.672;7.834;2023-10-09T03:19:10;15.30;88.20
58809;DHT22;44579;51.672;7.834;2023-10-09T03:21:37;15.40;88.30
58809;DHT22;44579;51.672;7.834;2023-10-09T03:24:04;15.30;88.30
58809;DHT22;44579;51.672;7.834;2023-10-09T03:26:33;15.40;88.30
58809;DHT22;44579;51.672;7.834;2023-10-09T03:29:00;15.30;88.40
58809;DHT22;44579;51.672;7.834;2023-10-09T03:31:30;15.30;88.40
58809;DHT22;44579;51.672;7.834;2023-10-09T03:33:57;15.30;88.40
58809;DHT22;44579;51.672;7.834;2023-10-09T03:36:24;15.40;88.60
58809;DHT22;44579;51.672;7.834;2023-10-09T03:38:57;15.40;88.50
58809;DHT22;44579;51.672;7.834;2023-10-09T03:41:30;15.40;88.60
58809;DHT22;44579;51.672;7.834;2023-10-09T03:43:56;15.40;88.60
58809;DHT22;44579;51.672;7.834;2023-10-09T03:46:23;15.40;88.60
58809;DHT22;44579;51.672;7.834;2023-10-09T03:48:59;15.40;88.80
58809;DHT22;44579;51.672;7.834;2023-10-09T03:51:37;15.40;88.70
58809;DHT22;44579;51.672;7.834;2023-10-09T03:54:04;15.40;88.70
58809;DHT22;44579;51.672;7.834;2023-10-09T03:56:35;15.40;88.70
58809;DHT22;44579;51.672;7.834;2023-10-09T03:59:02;15.40;88.70
58809;DHT22;44579;51.672;7.834;2023-10-09T04:01:31;15.40;88.70
58809;DHT22;44579;51.672;7.834;2023-10-09T04:04:07;15.40;88.90
58809;DHT22;44579;51.672;7.834;2023-10-09T04:06:37;15.50;88.80
58809;DHT22;44579;51.672;7.834;2023-10-09T04:09:08;15.50;88.90
58809;DHT22;44579;51.672;7.834;2023-10-09T04:11:50;15.50;88.90
58809;DHT22;44579;51.672;7.834;2023-10-09T04:14:39;15.50;89.00
58809;DHT22;44579;51.672;7.834;2023-10-09T04:17:27;15.50;89.00
58809;DHT22;44579;51.672;7.834;2023-10-09T04:20:10;15.50;89.00
58809;DHT22;44579;51.672;7.834;2023-10-09T04:22:47;15.50;89.00
58809;DHT22;44579;51.672;7.834;2023-10-09T04:25:33;15.50;88.90
58809;DHT22;44579;51.672;7.834;2023-10-09T04:28:10;15.50;88.90
58809;DHT22;44579;51.672;7.834;2023-10-09T04:30:48;15.50;88.90
58809;DHT22;44579;51.672;7.834;2023-10-09T04:33:22;15.60;89.00
58809;DHT22;44579;51.672;7.834;2023-10-09T04:36:05;15.60;89.00
58809;DHT22;44579;51.672;7.834;2023-10-09T04:38:44;15.60;88.90
58809;DHT22;44579;51.672;7.834;2023-10-09T04:41:43;15.60;88.90
58809;DHT22;44579;51.672;7.834;2023-10-09T04:44:10;15.60;89.00
58809;DHT22;44579;51.672;7.834;2023-10-09T04:46:51;15.60;88.90
58809;DHT22;44579;51.672;7.834;2023-10-09T04:49:41;15.60;88.90
58809;DHT22;44579;51.672;7.834;2023-10-09T04:52:31;15.60;89.00
58809;DHT22;44579;51.672;7.834;2023-10-09T04:55:01;15.60;89.00
58809;DHT22;44579;51.672;7.834;2023-10-09T05:00:18;15.70;89.00
58809;DHT22;44579;51.672;7.834;2023-10-09T05:03:20;15.70;89.00
58809;DHT22;44579;51.672;7.834;2023-10-09T05:06:12;15.70;89.00
58809;DHT22;44579;51.672;7.834;2023-10-09T05:09:04;15.70;89.00
58809;DHT22;44579;51.672;7.834;2023-10-09T05:11:40;15.70;89.10
58809;DHT22;44579;51.672;7.834;2023-10-09T05:14:36;15.70;89.20
58809;DHT22;44579;51.672;7.834;2023-10-09T05:17:06;15.70;89.10
58809;DHT22;44579;51.672;7.834;2023-10-09T05:19:33;15.70;89.20
58809;DHT22;44579;51.672;7.834;2023-10-09T05:22:12;15.70;89.20
58809;DHT22;44579;51.672;7.834;2023-10-09T05:25:06;15.70;89.20
58809;DHT22;44579;51.672;7.834;2023-10-09T05:27:43;15.70;89.20
58809;DHT22;44579;51.672;7.834;2023-10-09T05:30:17;15.70;89.20
58809;DHT22;44579;51.672;7.834;2023-10-09T05:32:54;15.70;89.20
58809;DHT22;44579;51.672;7.834;2023-10-09T05:35:25;15.70;89.30
58809;DHT22;44579;51.672;7.834;2023-10-09T05:38:26;15.70;89.20
58809;DHT22;44579;51.672;7.834;2023-10-09T05:40:59;15.70;89.20
58809;DHT22;44579;51.672;7.834;2023-10-09T05:43:47;15.70;89.20
58809;DHT22;44579;51.672;7.834;2023-10-09T05:46:35;15.70;89.20
58809;DHT22;44579;51.672;7.834;2023-10-09T05:49:02;15.70;89.30
58809;DHT22;44579;51.672;7.834;2023-10-09T05:51:47;15.70;89.20
58809;DHT22;44579;51.672;7.834;2023-10-09T05:54:23;15.70;89.20
58809;DHT22;44579;51.672;7.834;2023-10-09T05:57:10;15.70;89.20
58809;DHT22;44579;51.672;7.834;2023-10-09T05:59:56;15.70;89.20
58809;DHT22;44579;51.672;7.834;2023-10-09T06:02:49;15.80;89.30
58809;DHT22;44579;51.672;7.834;2023-10-09T06:05:34;15.80;89.30
58809;DHT22;44579;51.672;7.834;2023-10-09T06:08:08;15.80;89.20
58809;DHT22;44579;51.672;7.834;2023-10-09T06:10:40;15.80;89.30
58809;DHT22;44579;51.672;7.834;2023-10-09T06:13:08;15.80;89.20
58809;DHT22;44579;51.672;7.834;2023-10-09T06:15:56;15.80;90.00
58809;DHT22;44579;51.672;7.834;2023-10-09T06:18:42;15.80;89.20
58809;DHT22;44579;51.672;7.834;2023-10-09T06:21:21;15.90;89.30
58809;DHT22;44579;51.672;7.834;2023-10-09T06:24:24;15.90;89.30
58809;DHT22;44579;51.672;7.834;2023-10-09T06:27:10;15.90;89.40
58809;DHT22;44579;51.672;7.834;2023-10-09T06:29:42;15.90;89.40
58809;DHT22;44579;51.672;7.834;2023-10-09T06:32:12;16.00;89.40
58809;DHT22;44579;51.672;7.834;2023-10-09T06:34:52;15.90;89.30
58809;DHT22;44579;51.672;7.834;2023-10-09T06:37:24;16.00;89.40
58809;DHT22;44579;51.672;7.834;2023-10-09T06:40:16;16.00;89.30
58809;DHT22;44579;51.672;7.834;2023-10-09T06:43:29;16.10;89.40
58809;DHT22;44579;51.672;7.834;2023-10-09T06:45:59;16.10;89.40
58809;DHT22;44579;51.672;7.834;2023-10-09T06:48:45;16.10;89.40
58809;DHT22;44579;51.672;7.834;2023-10-09T06:51:13;16.10;89.40
58809;DHT22;44579;51.672;7.834;2023-10-09T06:54:15;16.20;89.50
58809;DHT22;44579;51.672;7.834;2023-10-09T06:56:43;16.10;89.40
58809;DHT22;44579;51.672;7.834;2023-10-09T06:59:19;16.20;89.50
58809;DHT22;44579;51.672;7.834;2023-10-09T07:01:51;16.20;89.60
58809;DHT22;44579;51.672;7.834;2023-10-09T07:04:38;16.20;89.60
58809;DHT22;44579;51.672;7.834;2023-10-09T07:07:05;16.20;89.60
58809;DHT22;44579;51.672;7.834;2023-10-09T07:09:40;16.20;89.60
58809;DHT22;44579;51.672;7.834;2023-10-09T07:12:32;16.30;89.70
58809;DHT22;44579;51.672;7.834;2023-10-09T07:15:01;16.20;89.60
58809;DHT22;44579;51.672;7.834;2023-10-09T07:17:43;16.30;89.60
58809;DHT22;44579;51.672;7.834;2023-10-09T07:20:15;16.20;89.50
58809;DHT22;44579;51.672;7.834;2023-10-09T07:23:03;16.30;89.60
58809;DHT22;44579;51.672;7.834;2023-10-09T07:25:45;16.40;89.60
58809;DHT22;44579;51.672;7.834;2023-10-09T07:28:22;16.40;89.60
58809;DHT22;44579;51.672;7.834;2023-10-09T07:31:19;16.40;89.50
58809;DHT22;44579;51.672;7.834;2023-10-09T07:33:54;16.40;89.60
58809;DHT22;44579;51.672;7.834;2023-10-09T07:36:24;16.40;89.60
58809;DHT22;44579;51.672;7.834;2023-10-09T07:39:04;16.40;89.60
58809;DHT22;44579;51.672;7.834;2023-10-09T07:41:41;16.50;89.70
58809;DHT22;44579;51.672;7.834;2023-10-09T07:44:22;16.50;89.70
58809;DHT22;44579;51.672;7.834;2023-10-09T07:47:05;16.50;89.60
58809;DHT22;44579;51.672;7.834;2023-10-09T07:49:46;16.50;89.60
58809;DHT22;44579;51.672;7.834;2023-10-09T07:52:21;16.60;89.60
58809;DHT22;44579;51.672;7.834;2023-10-09T07:54:49;16.60;89.50
58809;DHT22;44579;51.672;7.834;2023-10-09T07:57:30;16.60;89.50
58809;DHT22;44579;51.672;7.834;2023-10-09T08:00:06;16.60;89.50
58809;DHT22;44579;51.672;7.834;2023-10-09T08:03:00;16.70;89.60
58809;DHT22;44579;51.672;7.834;2023-10-09T08:05:28;16.60;89.60
58809;DHT22;44579;51.672;7.834;2023-10-09T08:08:01;16.60;89.60
58809;DHT22;44579;51.672;7.834;2023-10-09T08:11:07;16.70;89.60
58809;DHT22;44579;51.672;7.834;2023-10-09T08:13:55;16.60;89.70
58809;DHT22;44579;51.672;7.834;2023-10-09T08:16:25;16.70;89.70
58809;DHT22;44579;51.672;7.834;2023-10-09T08:19:04;16.70;89.70
58809;DHT22;44579;51.672;7.834;2023-10-09T08:21:51;16.70;89.70
58809;DHT22;44579;51.672;7.834;2023-10-09T08:24:37;16.70;89.80
58809;DHT22;44579;51.672;7.834;2023-10-09T08:27:11;16.70;89.80
58809;DHT22;44579;51.672;7.834;2023-10-09T08:30:02;16.70;89.70
58809;DHT22;44579;51.672;7.834;2023-10-09T08:32:46;16.80;89.90
58809;DHT22;44579;51.672;7.834;2023-10-09T08:35:38;16.80;89.90
58809;DHT22;44579;51.672;7.834;2023-10-09T08:38:20;16.80;89.80
58809;DHT22;44579;51.672;7.834;2023-10-09T08:40:51;16.80;89.80
58809;DHT22;44579;51.672;7.834;2023-10-09T08:43:34;16.90;89.80
58809;DHT22;44579;51.672;7.834;2023-10-09T08:46:07;16.90;89.90
58809;DHT22;44579;51.672;7.834;2023-10-09T08:48:35;17.00;89.90
58809;DHT22;44579;51.672;7.834;2023-10-09T08:51:09;17.00;89.90
58809;DHT22;44579;51.672;7.834;2023-10-09T08:53:39;17.00;89.90
58809;DHT22;44579;51.672;7.834;2023-10-09T08:56:11;17.10;89.90
58809;DHT22;44579;51.672;7.834;2023-10-09T08:58:41;17.10;89.80
58809;DHT22;44579;51.672;7.834;2023-10-09T09:01:19;17.20;89.90
58809;DHT22;44579;51.672;7.834;2023-10-09T09:03:53;17.20;89.90
58809;DHT22;44579;51.672;7.834;2023-10-09T09:06:25;17.20;89.90
58809;DHT22;44579;51.672;7.834;2023-10-09T09:08:54;17.20;89.90
58809;DHT22;44579;51.672;7.834;2023-10-09T09:11:41;17.20;89.90
58809;DHT22;44579;51.672;7.834;2023-10-09T09:14:15;17.20;90.00
58809;DHT22;44579;51.672;7.834;2023-10-09T09:16:48;17.20;90.00
58809;DHT22;44579;51.672;7.834;2023-10-09T09:19:16;17.20;90.00
58809;DHT22;44579;51.672;7.834;2023-10-09T09:21:51;17.30;90.00
58809;DHT22;44579;51.672;7.834;2023-10-09T09:24:22;17.30;90.00
58809;DHT22;44579;51.672;7.834;2023-10-09T09:27:00;17.30;90.00
58809;DHT22;44579;51.672;7.834;2023-10-09T09:29:50;17.40;90.00
58809;DHT22;44579;51.672;7.834;2023-10-09T09:32:28;17.30;90.00
58809;DHT22;44579;51.672;7.834;2023-10-09T09:35:12;17.40;90.40
58809;DHT22;44579;51.672;7.834;2023-10-09T09:38:05;17.50;90.00
58809;DHT22;44579;51.672;7.834;2023-10-09T09:40:35;17.50;90.00
58809;DHT22;44579;51.672;7.834;2023-10-09T09:43:20;17.60;90.00
58809;DHT22;44579;51.672;7.834;2023-10-09T09:45:49;17.60;90.00
58809;DHT22;44579;51.672;7.834;2023-10-09T09:48:20;17.70;89.90
58809;DHT22;44579;51.672;7.834;2023-10-09T09:50:48;17.80;89.80
58809;DHT22;44579;51.672;7.834;2023-10-09T09:53:18;17.80;89.70
58809;DHT22;44579;51.672;7.834;2023-10-09T09:55:54;17.90;89.70
58809;DHT22;44579;51.672;7.834;2023-10-09T09:58:41;18.00;89.70
58809;DHT22;44579;51.672;7.834;2023-10-09T10:01:13;18.00;89.60
58809;DHT22;44579;51.672;7.834;2023-10-09T10:04:12;18.10;89.70
58809;DHT22;44579;51.672;7.834;2023-10-09T10:06:53;18.10;89.50
58809;DHT22;44579;51.672;7.834;2023-10-09T10:09:42;18.20;89.60
58809;DHT22;44579;51.672;7.834;2023-10-09T10:15:13;18.20;89.40
58809;DHT22;44579;51.672;7.834;2023-10-09T10:20:26;18.20;89.40
58809;DHT22;44579;51.672;7.834;2023-10-09T10:23:16;18.20;89.40
58809;DHT22;44579;51.672;7.834;2023-10-09T10:25:46;18.20;89.40
58809;DHT22;44579;51.672;7.834;2023-10-09T10:28:27;18.30;89.50
58809;DHT22;44579;51.672;7.834;2023-10-09T10:31:16;18.30;89.60
58809;DHT22;44579;51.672;7.834;2023-10-09T10:36:25;18.30;90.20
58809;DHT22;44579;51.672;7.834;2023-10-09T10:39:05;18.40;89.60
58809;DHT22;44579;51.672;7.834;2023-10-09T10:41:57;18.40;89.40
58809;DHT22;44579;51.672;7.834;2023-10-09T10:44:33;18.40;89.30
58809;DHT22;44579;51.672;7.834;2023-10-09T10:47:11;18.40;89.40
58809;DHT22;44579;51.672;7.834;2023-10-09T10:50:01;18.50;89.50
58809;DHT22;44579;51.672;7.834;2023-10-09T10:53:13;18.50;89.40
58809;DHT22;44579;51.672;7.834;2023-10-09T10:56:05;18.50;89.40
58809;DHT22;44579;51.672;7.834;2023-10-09T10:58:54;18.60;89.30
58809;DHT22;44579;51.672;7.834;2023-10-09T11:01:34;18.60;89.20
58809;DHT22;44579;51.672;7.834;2023-10-09T11:04:25;18.60;89.20
58809;DHT22;44579;51.672;7.834;2023-10-09T11:07:02;18.60;89.00
58809;DHT22;44579;51.672;7.834;2023-10-09T11:09:53;18.60;89.00
58809;DHT22;44579;51.672;7.834;2023-10-09T11:12:44;18.60;89.00
58809;DHT22;44579;51.672;7.834;2023-10-09T11:15:36;18.70;88.90
58809;DHT22;44579;51.672;7.834;2023-10-09T11:18:14;18.70;88.70
58809;DHT22;44579;51.672;7.834;2023-10-09T11:21:01;18.70;88.80
58809;DHT22;44579;51.672;7.834;2023-10-09T11:23:52;18.80;88.70
58809;DHT22;44579;51.672;7.834;2023-10-09T11:26:20;18.80;88.70
58809;DHT22;44579;51.672;7.834;2023-10-09T11:29:13;18.90;88.60
58809;DHT22;44579;51.672;7.834;2023-10-09T11:32:01;18.90;88.70
58809;DHT22;44579;51.672;7.834;2023-10-09T11:34:39;19.00;88.80
58809;DHT22;44579;51.672;7.834;2023-10-09T11:37:14;18.90;88.70
58809;DHT22;44579;51.672;7.834;2023-10-09T11:39:59;19.00;88.70
58809;DHT22;44579;51.672;7.834;2023-10-09T11:42:37;18.90;88.70
58809;DHT22;44579;51.672;7.834;2023-10-09T11:45:22;18.90;88.60
58809;DHT22;44579;51.672;7.834;2023-10-09T11:48:17;19.00;89.50
58809;DHT22;44579;51.672;7.834;2023-10-09T11:51:19;19.00;88.50
58809;DHT22;44579;51.672;7.834;2023-10-09T11:54:02;19.00;88.60
58809;DHT22;44579;51.672;7.834;2023-10-09T11:56:31;19.00;88.80
58809;DHT22;44579;51.672;7.834;2023-10-09T11:59:10;19.10;88.90
58809;DHT22;44579;51.672;7.834;2023-10-09T12:01:49;19.10;88.80
58809;DHT22;44579;51.672;7.834;2023-10-09T12:04:23;19.10;88.60
58809;DHT22;44579;51.672;7.834;2023-10-09T12:07:02;19.20;88.40
58809;DHT22;44579;51.672;7.834;2023-10-09T12:09:43;19.30;88.40
58809;DHT22;44579;51.672;7.834;2023-10-09T12:12:23;19.30;88.20
58809;DHT22;44579;51.672;7.834;2023-10-09T12:15:05;19.30;88.10
58809;DHT22;44579;51.672;7.834;2023-10-09T12:17:42;19.40;88.10
58809;DHT22;44579;51.672;7.834;2023-10-09T12:20:11;19.40;88.10
58809;DHT22;44579;51.672;7.834;2023-10-09T12:23:20;19.40;87.90
58809;DHT22;44579;51.672;7.834;2023-10-09T12:25:51;19.40;87.90
58809;DHT22;44579;51.672;7.834;2023-10-09T12:28:24;19.50;87.90
58809;DHT22;44579;51.672;7.834;2023-10-09T12:30:58;19.50;87.80
58809;DHT22;44579;51.672;7.834;2023-10-09T12:33:29;19.60;87.70
58809;DHT22;44579;51.672;7.834;2023-10-09T12:36:00;19.60;87.50
58809;DHT22;44579;51.672;7.834;2023-10-09T12:38:46;19.70;87.40
58809;DHT22;44579;51.672;7.834;2023-10-09T12:41:20;19.80;87.10
58809;DHT22;44579;51.672;7.834;2023-10-09T12:44:09;19.70;87.00
58809;DHT22;44579;51.672;7.834;2023-10-09T12:46:46;19.70;87.00
58809;DHT22;44579;51.672;7.834;2023-10-09T12:49:24;19.70;87.00
58809;DHT22;44579;51.672;7.834;2023-10-09T12:52:03;19.60;86.90
58809;DHT22;44579;51.672;7.834;2023-10-09T12:54:37;19.60;86.90
58809;DHT22;44579;51.672;7.834;2023-10-09T12:57:16;19.60;87.00
58809;DHT22;44579;51.672;7.834;2023-10-09T12:59:53;19.60;86.80
58809;DHT22;44579;51.672;7.834;2023-10-09T13:02:39;19.70;86.90
58809;DHT22;44579;51.672;7.834;2023-10-09T13:05:16;19.70;86.90
58809;DHT22;44579;51.672;7.834;2023-10-09T13:07:53;19.70;86.70
58809;DHT22;44579;51.672;7.834;2023-10-09T13:10:31;19.80;86.60
58809;DHT22;44579;51.672;7.834;2023-10-09T13:13:02;19.80;86.80
58809;DHT22;44579;51.672;7.834;2023-10-09T13:15:37;19.80;86.60
58809;DHT22;44579;51.672;7.834;2023-10-09T13:18:14;19.70;86.60
58809;DHT22;44579;51.672;7.834;2023-10-09T13:20:42;19.80;86.60
58809;DHT22;44579;51.672;7.834;2023-10-09T13:26:22;19.80;86.40
58809;DHT22;44579;51.672;7.834;2023-10-09T13:29:03;19.70;86.30
58809;DHT22;44579;51.672;7.834;2023-10-09T13:31:39;19.60;86.40
58809;DHT22;44579;51.672;7.834;2023-10-09T13:34:37;19.60;86.50
58809;DHT22;44579;51.672;7.834;2023-10-09T13:37:15;19.60;86.50
58809;DHT22;44579;51.672;7.834;2023-10-09T13:39:49;19.50;86.50
58809;DHT22;44579;51.672;7.834;2023-10-09T13:42:24;19.50;86.50
58809;DHT22;44579;51.672;7.834;2023-10-09T13:44:53;19.50;86.50
58809;DHT22;44579;51.672;7.834;2023-10-09T13:47:24;19.50;86.50
58809;DHT22;44579;51.672;7.834;2023-10-09T13:50:04;19.50;86.50
58809;DHT22;44579;51.672;7.834;2023-10-09T13:52:54;19.40;86.50
58809;DHT22;44579;51.672;7.834;2023-10-09T13:55:24;19.40;86.40
58809;DHT22;44579;51.672;7.834;2023-10-09T13:58:01;19.40;86.60
58809;DHT22;44579;51.672;7.834;2023-10-09T14:00:34;19.40;86.50
58809;DHT22;44579;51.672;7.834;2023-10-09T14:03:21;19.30;86.40
58809;DHT22;44579;51.672;7.834;2023-10-09T14:06:00;19.30;86.30
58809;DHT22;44579;51.672;7.834;2023-10-09T14:08:49;19.30;86.40
58809;DHT22;44579;51.672;7.834;2023-10-09T14:11:22;19.30;86.30
58809;DHT22;44579;51.672;7.834;2023-10-09T14:13:56;19.30;86.30
58809;DHT22;44579;51.672;7.834;2023-10-09T14:16:38;19.40;86.30
58809;DHT22;44579;51.672;7.834;2023-10-09T14:19:10;19.40;86.20
58809;DHT22;44579;51.672;7.834;2023-10-09T14:21:46;19.40;86.20
58809;DHT22;44579;51.672;7.834;2023-10-09T14:24:39;19.40;86.20
58809;DHT22;44579;51.672;7.834;2023-10-09T14:27:29;19.40;86.10
58809;DHT22;44579;51.672;7.834;2023-10-09T14:30:11;19.40;86.00
58809;DHT22;44579;51.672;7.834;2023-10-09T14:32:50;19.40;86.00
58809;DHT22;44579;51.672;7.834;2023-10-09T14:35:43;19.40;85.90
58809;DHT22;44579;51.672;7.834;2023-10-09T14:38:12;19.40;85.90
58809;DHT22;44579;51.672;7.834;2023-10-09T14:40:49;19.50;85.90
58809;DHT22;44579;51.672;7.834;2023-10-09T14:43:27;19.40;85.80
58809;DHT22;44579;51.672;7.834;2023-10-09T14:46:03;19.40;85.80
58809;DHT22;44579;51.672;7.834;2023-10-09T14:48:45;19.40;85.90
58809;DHT22;44579;51.672;7.834;2023-10-09T14:51:32;19.30;85.80
58809;DHT22;44579;51.672;7.834;2023-10-09T14:54:03;19.30;85.80
58809;DHT22;44579;51.672;7.834;2023-10-09T14:56:31;19.30;85.80
58809;DHT22;44579;51.672;7.834;2023-10-09T14:59:04;19.30;85.80
58809;DHT22;44579;51.672;7.834;2023-10-09T15:01:36;19.30;85.80
58809;DHT22;44579;51.672;7.834;2023-10-09T15:04:06;19.40;85.80
58809;DHT22;44579;51.672;7.834;2023-10-09T15:06:48;19.40;85.80
58809;DHT22;44579;51.672;7.834;2023-10-09T15:09:32;19.40;85.80
58809;DHT22;44579;51.672;7.834;2023-10-09T15:12:08;19.30;85.70
58809;DHT22;44579;51.672;7.834;2023-10-09T15:14:36;19.30;85.70
58809;DHT22;44579;51.672;7.834;2023-10-09T15:17:11;19.30;85.70
58809;DHT22;44579;51.672;7.834;2023-10-09T15:19:48;19.30;85.90
58809;DHT22;44579;51.672;7.834;2023-10-09T15:22:25;19.30;85.90
58809;DHT22;44579;51.672;7.834;2023-10-09T15:25:07;19.30;85.90
58809;DHT22;44579;51.672;7.834;2023-10-09T15:27:46;19.20;85.90
58809;DHT22;44579;51.672;7.834;2023-10-09T15:30:19;19.20;85.90
58809;DHT22;44579;51.672;7.834;2023-10-09T15:32:49;19.20;85.90
58809;DHT22;44579;51.672;7.834;2023-10-09T15:35:17;19.20;85.90
58809;DHT22;44579;51.672;7.834;2023-10-09T15:37:58;19.20;85.90
58809;DHT22;44579;51.672;7.834;2023-10-09T15:40:36;19.20;85.90
58809;DHT22;44579;51.672;7.834;2023-10-09T15:43:17;19.20;85.90
58809;DHT22;44579;51.672;7.834;2023-10-09T15:45:54;19.20;85.90
58809;DHT22;44579;51.672;7.834;2023-10-09T15:48:28;19.20;85.90
58809;DHT22;44579;51.672;7.834;2023-10-09T15:51:15;19.20;85.90
58809;DHT22;44579;51.672;7.834;2023-10-09T15:54:02;19.20;85.90
58809;DHT22;44579;51.672;7.834;2023-10-09T15:56:37;19.10;85.80
58809;DHT22;44579;51.672;7.834;2023-10-09T15:59:32;19.10;85.80
58809;DHT22;44579;51.672;7.834;2023-10-09T16:02:07;19.20;85.90
58809;DHT22;44579;51.672;7.834;2023-10-09T16:04:37;19.10;85.80
58809;DHT22;44579;51.672;7.834;2023-10-09T16:07:18;19.20;86.00
58809;DHT22;44579;51.672;7.834;2023-10-09T16:09:51;19.20;86.00
58809;DHT22;44579;51.672;7.834;2023-10-09T16:12:32;19.10;85.90
58809;DHT22;44579;51.672;7.834;2023-10-09T16:15:14;19.10;86.00
58809;DHT22;44579;51.672;7.834;2023-10-09T16:17:51;19.10;86.00
58809;DHT22;44579;51.672;7.834;2023-10-09T16:20:29;19.10;86.00
58809;DHT22;44579;51.672;7.834;2023-10-09T16:23:07;19.10;86.00
58809;DHT22;44579;51.672;7.834;2023-10-09T16:25:57;19.10;86.00
58809;DHT22;44579;51.672;7.834;2023-10-09T16:28:31;19.10;86.10
58809;DHT22;44579;51.672;7.834;2023-10-09T16:31:02;19.00;86.00
58809;DHT22;44579;51.672;7.834;2023-10-09T16:33:34;19.00;86.00
58809;DHT22;44579;51.672;7.834;2023-10-09T16:36:04;19.00;86.00
58809;DHT22;44579;51.672;7.834;2023-10-09T16:38:35;19.00;86.00
58809;DHT22;44579;51.672;7.834;2023-10-09T16:41:17;19.00;86.10
58809;DHT22;44579;51.672;7.834;2023-10-09T16:44:04;19.00;86.10
58809;DHT22;44579;51.672;7.834;2023-10-09T16:46:45;19.00;86.10
58809;DHT22;44579;51.672;7.834;2023-10-09T16:49:16;19.00;86.10
58809;DHT22;44579;51.672;7.834;2023-10-09T16:51:55;19.00;86.10
58809;DHT22;44579;51.672;7.834;2023-10-09T16:54:52;19.00;86.10